KDEC/DEC METAR and TAF weather

Enter ICAO airport designator
Station Type Date Time Source
KDEC METAR 2024/04/15 07:54 UTC NOAA

KDEC 150754Z AUTO 27005KT 10SM CLR 18/14 A2981 RMK AO2 SLP089 T01780144


Station Type Date Time Source
KDEC Decoded METAR 2024/04/15 07:54 UTC NOAA

DECATUR AIRPORT, IL, United States (KDEC) 39-50N 88-52W 207M
Apr 15, 2024 - 03:54 AM EDT / 2024.04.15 0754 UTC
Wind: from the W (270 degrees) at 6 MPH (5 KT):0
Visibility: 10 mile(s):0
Sky conditions: clear
Temperature: 64.0 F (17.8 C)
Dew Point: 57.9 F (14.4 C)
Relative Humidity: 80%
Pressure (altimeter): 29.81 in. Hg (1009 hPa)
ob: KDEC 150754Z AUTO 27005KT 10SM CLR 18/14 A2981 RMK AO2 SLP089 T01780144
cycle: 8

Station Type Date Time Source
KDEC TAF 2024/04/15 06:06 UTC NOAA